sensor_id;sensor_type;location;lat;lon;timestamp;P1;durP1;ratioP1;P2;durP2;ratioP2
3633;SDS011;1833;42.718;23.270;2023-08-06T00:01:59;55.20;;;50.10;;
3633;SDS011;1833;42.718;23.270;2023-08-06T00:04:27;53.30;;;48.60;;
3633;SDS011;1833;42.718;23.270;2023-08-06T00:06:54;54.30;;;49.60;;
3633;SDS011;1833;42.718;23.270;2023-08-06T00:09:21;53.57;;;48.77;;
3633;SDS011;1833;42.718;23.270;2023-08-06T00:11:48;51.13;;;46.57;;
3633;SDS011;1833;42.718;23.270;2023-08-06T00:14:16;52.63;;;47.70;;
3633;SDS011;1833;42.718;23.270;2023-08-06T00:16:43;52.50;;;47.90;;
3633;SDS011;1833;42.718;23.270;2023-08-06T00:19:12;54.60;;;49.40;;
3633;SDS011;1833;42.718;23.270;2023-08-06T00:21:39;54.30;;;49.60;;
3633;SDS011;1833;42.718;23.270;2023-08-06T00:24:06;55.53;;;50.43;;
3633;SDS011;1833;42.718;23.270;2023-08-06T00:26:33;54.10;;;49.30;;
3633;SDS011;1833;42.718;23.270;2023-08-06T00:29:01;55.93;;;50.57;;
3633;SDS011;1833;42.718;23.270;2023-08-06T00:31:28;54.90;;;50.10;;
3633;SDS011;1833;42.718;23.270;2023-08-06T00:33:55;57.10;;;52.10;;
3633;SDS011;1833;42.718;23.270;2023-08-06T00:36:24;60.03;;;55.00;;
3633;SDS011;1833;42.718;23.270;2023-08-06T00:38:51;58.60;;;53.40;;
3633;SDS011;1833;42.718;23.270;2023-08-06T00:41:18;57.53;;;52.53;;
3633;SDS011;1833;42.718;23.270;2023-08-06T00:43:45;55.00;;;50.30;;
3633;SDS011;1833;42.718;23.270;2023-08-06T00:46:13;58.30;;;53.20;;
3633;SDS011;1833;42.718;23.270;2023-08-06T00:48:40;57.53;;;52.67;;
3633;SDS011;1833;42.718;23.270;2023-08-06T00:51:08;56.33;;;51.63;;
3633;SDS011;1833;42.718;23.270;2023-08-06T00:53:37;57.73;;;52.73;;
3633;SDS011;1833;42.718;23.270;2023-08-06T00:56:04;56.70;;;52.00;;
3633;SDS011;1833;42.718;23.270;2023-08-06T00:58:32;58.20;;;53.10;;
3633;SDS011;1833;42.718;23.270;2023-08-06T01:00:59;57.27;;;52.03;;
3633;SDS011;1833;42.718;23.270;2023-08-06T01:03:26;57.40;;;52.17;;
3633;SDS011;1833;42.718;23.270;2023-08-06T01:05:54;57.60;;;52.80;;
3633;SDS011;1833;42.718;23.270;2023-08-06T01:08:26;58.83;;;53.80;;
3633;SDS011;1833;42.718;23.270;2023-08-06T01:11:00;57.10;;;52.23;;
3633;SDS011;1833;42.718;23.270;2023-08-06T01:13:33;58.13;;;53.23;;
3633;SDS011;1833;42.718;23.270;2023-08-06T01:16:02;56.80;;;52.10;;
3633;SDS011;1833;42.718;23.270;2023-08-06T01:18:31;59.60;;;54.57;;
3633;SDS011;1833;42.718;23.270;2023-08-06T01:21:00;58.53;;;53.80;;
3633;SDS011;1833;42.718;23.270;2023-08-06T01:23:27;57.07;;;51.67;;
3633;SDS011;1833;42.718;23.270;2023-08-06T01:25:56;54.40;;;49.60;;
3633;SDS011;1833;42.718;23.270;2023-08-06T01:28:27;51.70;;;47.20;;
3633;SDS011;1833;42.718;23.270;2023-08-06T01:30:59;50.83;;;46.33;;
3633;SDS011;1833;42.718;23.270;2023-08-06T01:33:27;51.37;;;46.77;;
3633;SDS011;1833;42.718;23.270;2023-08-06T01:35:55;52.10;;;47.80;;
3633;SDS011;1833;42.718;23.270;2023-08-06T01:38:24;53.40;;;48.67;;
3633;SDS011;1833;42.718;23.270;2023-08-06T01:40:53;51.70;;;47.23;;
3633;SDS011;1833;42.718;23.270;2023-08-06T01:43:20;51.43;;;46.70;;
3633;SDS011;1833;42.718;23.270;2023-08-06T01:45:47;49.77;;;45.53;;
3633;SDS011;1833;42.718;23.270;2023-08-06T01:48:15;48.93;;;44.67;;
3633;SDS011;1833;42.718;23.270;2023-08-06T01:50:42;47.57;;;43.37;;
3633;SDS011;1833;42.718;23.270;2023-08-06T01:53:09;50.83;;;46.10;;
3633;SDS011;1833;42.718;23.270;2023-08-06T01:55:38;51.00;;;46.30;;
3633;SDS011;1833;42.718;23.270;2023-08-06T01:58:05;51.60;;;47.03;;
3633;SDS011;1833;42.718;23.270;2023-08-06T02:00:32;48.83;;;44.87;;
3633;SDS011;1833;42.718;23.270;2023-08-06T02:02:59;51.47;;;47.20;;
3633;SDS011;1833;42.718;23.270;2023-08-06T02:05:26;50.27;;;46.17;;
3633;SDS011;1833;42.718;23.270;2023-08-06T02:07:54;49.93;;;45.70;;
3633;SDS011;1833;42.718;23.270;2023-08-06T02:10:21;47.70;;;43.80;;
3633;SDS011;1833;42.718;23.270;2023-08-06T02:12:49;51.73;;;47.33;;
3633;SDS011;1833;42.718;23.270;2023-08-06T02:15:17;52.60;;;48.00;;
3633;SDS011;1833;42.718;23.270;2023-08-06T02:17:44;51.93;;;47.10;;
3633;SDS011;1833;42.718;23.270;2023-08-06T02:20:11;52.00;;;47.17;;
3633;SDS011;1833;42.718;23.270;2023-08-06T02:22:38;52.83;;;48.43;;
3633;SDS011;1833;42.718;23.270;2023-08-06T02:25:06;52.17;;;47.97;;
3633;SDS011;1833;42.718;23.270;2023-08-06T02:27:33;53.63;;;48.83;;
3633;SDS011;1833;42.718;23.270;2023-08-06T02:30:02;56.43;;;51.07;;
3633;SDS011;1833;42.718;23.270;2023-08-06T02:32:29;56.13;;;51.47;;
3633;SDS011;1833;42.718;23.270;2023-08-06T02:34:57;58.53;;;53.37;;
3633;SDS011;1833;42.718;23.270;2023-08-06T02:37:24;54.20;;;49.60;;
3633;SDS011;1833;42.718;23.270;2023-08-06T02:39:51;54.37;;;50.20;;
3633;SDS011;1833;42.718;23.270;2023-08-06T02:42:19;55.00;;;49.97;;
3633;SDS011;1833;42.718;23.270;2023-08-06T02:44:46;53.77;;;49.57;;
3633;SDS011;1833;42.718;23.270;2023-08-06T02:47:14;54.33;;;49.60;;
3633;SDS011;1833;42.718;23.270;2023-08-06T02:49:42;52.47;;;48.10;;
3633;SDS011;1833;42.718;23.270;2023-08-06T02:52:10;51.53;;;47.07;;
3633;SDS011;1833;42.718;23.270;2023-08-06T02:54:37;51.13;;;46.93;;
3633;SDS011;1833;42.718;23.270;2023-08-06T02:57:05;49.50;;;45.30;;
3633;SDS011;1833;42.718;23.270;2023-08-06T02:59:32;49.77;;;45.70;;
3633;SDS011;1833;42.718;23.270;2023-08-06T03:01:59;52.67;;;48.07;;
3633;SDS011;1833;42.718;23.270;2023-08-06T03:04:28;55.70;;;51.10;;
3633;SDS011;1833;42.718;23.270;2023-08-06T03:06:55;54.30;;;49.60;;
3633;SDS011;1833;42.718;23.270;2023-08-06T03:09:23;54.50;;;50.20;;
3633;SDS011;1833;42.718;23.270;2023-08-06T03:11:50;55.77;;;51.37;;
3633;SDS011;1833;42.718;23.270;2023-08-06T03:14:17;58.37;;;53.90;;
3633;SDS011;1833;42.718;23.270;2023-08-06T03:16:44;59.27;;;54.57;;
3633;SDS011;1833;42.718;23.270;2023-08-06T03:19:11;56.40;;;52.10;;
3633;SDS011;1833;42.718;23.270;2023-08-06T03:21:40;54.73;;;50.40;;
3633;SDS011;1833;42.718;23.270;2023-08-06T03:24:07;56.37;;;51.70;;
3633;SDS011;1833;42.718;23.270;2023-08-06T03:26:34;55.93;;;51.50;;
3633;SDS011;1833;42.718;23.270;2023-08-06T03:29:02;57.43;;;52.30;;
3633;SDS011;1833;42.718;23.270;2023-08-06T03:31:29;55.20;;;51.00;;
3633;SDS011;1833;42.718;23.270;2023-08-06T03:33:56;55.03;;;50.73;;
3633;SDS011;1833;42.718;23.270;2023-08-06T03:36:23;57.57;;;52.97;;
3633;SDS011;1833;42.718;23.270;2023-08-06T03:38:52;58.07;;;53.37;;
3633;SDS011;1833;42.718;23.270;2023-08-06T03:41:19;55.50;;;51.10;;
3633;SDS011;1833;42.718;23.270;2023-08-06T03:43:46;56.10;;;51.50;;
3633;SDS011;1833;42.718;23.270;2023-08-06T03:46:14;53.83;;;49.53;;
3633;SDS011;1833;42.718;23.270;2023-08-06T03:48:41;53.67;;;49.37;;
3633;SDS011;1833;42.718;23.270;2023-08-06T03:51:08;55.03;;;50.53;;
3633;SDS011;1833;42.718;23.270;2023-08-06T03:53:35;57.20;;;52.50;;
3633;SDS011;1833;42.718;23.270;2023-08-06T03:56:04;57.97;;;53.37;;
3633;SDS011;1833;42.718;23.270;2023-08-06T03:58:32;56.57;;;51.90;;
3633;SDS011;1833;42.718;23.270;2023-08-06T04:00:59;55.67;;;51.10;;
3633;SDS011;1833;42.718;23.270;2023-08-06T04:03:26;57.50;;;52.80;;
3633;SDS011;1833;42.718;23.270;2023-08-06T04:05:54;55.33;;;50.77;;
3633;SDS011;1833;42.718;23.270;2023-08-06T04:08:21;54.53;;;50.23;;
3633;SDS011;1833;42.718;23.270;2023-08-06T04:10:49;55.37;;;50.80;;
3633;SDS011;1833;42.718;23.270;2023-08-06T04:13:17;56.80;;;52.03;;
3633;SDS011;1833;42.718;23.270;2023-08-06T04:15:45;55.53;;;50.87;;
3633;SDS011;1833;42.718;23.270;2023-08-06T04:18:12;54.63;;;50.03;;
3633;SDS011;1833;42.718;23.270;2023-08-06T04:20:42;53.20;;;49.10;;
3633;SDS011;1833;42.718;23.270;2023-08-06T04:23:10;52.23;;;47.93;;
3633;SDS011;1833;42.718;23.270;2023-08-06T04:25:37;50.40;;;46.10;;
3633;SDS011;1833;42.718;23.270;2023-08-06T04:28:04;50.93;;;46.17;;
3633;SDS011;1833;42.718;23.270;2023-08-06T04:30:33;50.73;;;46.43;;
3633;SDS011;1833;42.718;23.270;2023-08-06T04:33:00;51.50;;;47.20;;
3633;SDS011;1833;42.718;23.270;2023-08-06T04:35:27;50.40;;;46.30;;
3633;SDS011;1833;42.718;23.270;2023-08-06T04:37:55;49.30;;;45.40;;
3633;SDS011;1833;42.718;23.270;2023-08-06T04:40:22;49.83;;;45.83;;
3633;SDS011;1833;42.718;23.270;2023-08-06T04:42:49;49.10;;;44.93;;
3633;SDS011;1833;42.718;23.270;2023-08-06T04:45:16;50.60;;;45.93;;
3633;SDS011;1833;42.718;23.270;2023-08-06T04:47:45;46.97;;;42.97;;
3633;SDS011;1833;42.718;23.270;2023-08-06T04:50:12;49.03;;;44.53;;
3633;SDS011;1833;42.718;23.270;2023-08-06T04:52:39;48.30;;;44.50;;
3633;SDS011;1833;42.718;23.270;2023-08-06T04:55:07;48.03;;;44.47;;
3633;SDS011;1833;42.718;23.270;2023-08-06T04:57:34;48.40;;;44.70;;
3633;SDS011;1833;42.718;23.270;2023-08-06T05:00:01;47.70;;;44.00;;
3633;SDS011;1833;42.718;23.270;2023-08-06T05:02:29;45.80;;;42.30;;
3633;SDS011;1833;42.718;23.270;2023-08-06T05:04:58;46.47;;;42.77;;
3633;SDS011;1833;42.718;23.270;2023-08-06T05:07:26;44.97;;;41.57;;
3633;SDS011;1833;42.718;23.270;2023-08-06T05:09:53;44.17;;;40.87;;
3633;SDS011;1833;42.718;23.270;2023-08-06T05:12:20;40.60;;;37.30;;
3633;SDS011;1833;42.718;23.270;2023-08-06T05:14:47;39.00;;;35.53;;
3633;SDS011;1833;42.718;23.270;2023-08-06T05:17:15;39.40;;;36.30;;
3633;SDS011;1833;42.718;23.270;2023-08-06T05:19:42;37.43;;;34.57;;
3633;SDS011;1833;42.718;23.270;2023-08-06T05:22:10;33.50;;;31.00;;
3633;SDS011;1833;42.718;23.270;2023-08-06T05:24:38;30.90;;;28.17;;
3633;SDS011;1833;42.718;23.270;2023-08-06T05:27:05;26.70;;;24.70;;
3633;SDS011;1833;42.718;23.270;2023-08-06T05:29:32;25.90;;;23.80;;
3633;SDS011;1833;42.718;23.270;2023-08-06T05:31:59;23.37;;;21.50;;
3633;SDS011;1833;42.718;23.270;2023-08-06T05:34:27;24.40;;;22.60;;
3633;SDS011;1833;42.718;23.270;2023-08-06T05:36:54;26.13;;;24.03;;
3633;SDS011;1833;42.718;23.270;2023-08-06T05:39:22;27.10;;;25.03;;
3633;SDS011;1833;42.718;23.270;2023-08-06T05:41:50;28.00;;;25.63;;
3633;SDS011;1833;42.718;23.270;2023-08-06T05:44:17;30.30;;;27.80;;
3633;SDS011;1833;42.718;23.270;2023-08-06T05:46:44;31.42;;;28.98;;
3633;SDS011;1833;42.718;23.270;2023-08-06T05:49:12;30.52;;;28.00;;
3633;SDS011;1833;42.718;23.270;2023-08-06T05:51:39;31.52;;;28.63;;
3633;SDS011;1833;42.718;23.270;2023-08-06T05:54:06;29.90;;;27.60;;
3633;SDS011;1833;42.718;23.270;2023-08-06T05:56:35;30.08;;;27.85;;
3633;SDS011;1833;42.718;23.270;2023-08-06T05:59:02;29.42;;;27.20;;
3633;SDS011;1833;42.718;23.270;2023-08-06T06:01:29;31.67;;;29.08;;
3633;SDS011;1833;42.718;23.270;2023-08-06T06:03:57;30.15;;;27.63;;
3633;SDS011;1833;42.718;23.270;2023-08-06T06:06:24;30.85;;;28.13;;
3633;SDS011;1833;42.718;23.270;2023-08-06T06:08:51;29.50;;;27.10;;
3633;SDS011;1833;42.718;23.270;2023-08-06T06:11:19;32.83;;;29.25;;
3633;SDS011;1833;42.718;23.270;2023-08-06T06:13:48;31.80;;;29.20;;
3633;SDS011;1833;42.718;23.270;2023-08-06T06:16:16;32.33;;;29.65;;
3633;SDS011;1833;42.718;23.270;2023-08-06T06:18:43;32.17;;;29.50;;
3633;SDS011;1833;42.718;23.270;2023-08-06T06:21:10;30.40;;;28.00;;
3633;SDS011;1833;42.718;23.270;2023-08-06T06:23:37;28.57;;;26.33;;
3633;SDS011;1833;42.718;23.270;2023-08-06T06:26:05;25.30;;;23.40;;
3633;SDS011;1833;42.718;23.270;2023-08-06T06:28:32;27.73;;;25.47;;
3633;SDS011;1833;42.718;23.270;2023-08-06T06:31:01;27.60;;;25.50;;
3633;SDS011;1833;42.718;23.270;2023-08-06T06:33:28;28.50;;;26.33;;
3633;SDS011;1833;42.718;23.270;2023-08-06T06:35:56;29.33;;;27.13;;
3633;SDS011;1833;42.718;23.270;2023-08-06T06:38:23;30.50;;;28.20;;
3633;SDS011;1833;42.718;23.270;2023-08-06T06:40:54;28.63;;;26.53;;
3633;SDS011;1833;42.718;23.270;2023-08-06T06:43:21;29.10;;;26.90;;
3633;SDS011;1833;42.718;23.270;2023-08-06T06:45:52;30.13;;;27.30;;
3633;SDS011;1833;42.718;23.270;2023-08-06T06:48:21;30.30;;;27.80;;
3633;SDS011;1833;42.718;23.270;2023-08-06T06:50:48;29.77;;;27.03;;
3633;SDS011;1833;42.718;23.270;2023-08-06T06:53:16;28.40;;;26.30;;
3633;SDS011;1833;42.718;23.270;2023-08-06T06:55:43;29.13;;;26.93;;
3633;SDS011;1833;42.718;23.270;2023-08-06T06:58:10;28.33;;;25.93;;
3633;SDS011;1833;42.718;23.270;2023-08-06T07:00:38;28.90;;;26.70;;
3633;SDS011;1833;42.718;23.270;2023-08-06T07:03:05;27.53;;;25.53;;
3633;SDS011;1833;42.718;23.270;2023-08-06T07:05:34;29.47;;;27.37;;
3633;SDS011;1833;42.718;23.270;2023-08-06T07:08:01;31.17;;;28.40;;
3633;SDS011;1833;42.718;23.270;2023-08-06T07:10:28;30.07;;;27.97;;
3633;SDS011;1833;42.718;23.270;2023-08-06T07:12:56;30.13;;;27.80;;
3633;SDS011;1833;42.718;23.270;2023-08-06T07:15:23;30.77;;;28.20;;
3633;SDS011;1833;42.718;23.270;2023-08-06T07:17:50;29.40;;;27.10;;
3633;SDS011;1833;42.718;23.270;2023-08-06T07:20:17;31.50;;;29.10;;
3633;SDS011;1833;42.718;23.270;2023-08-06T07:22:46;31.77;;;29.57;;
3633;SDS011;1833;42.718;23.270;2023-08-06T07:25:13;30.50;;;28.00;;
3633;SDS011;1833;42.718;23.270;2023-08-06T07:27:40;32.10;;;29.70;;
3633;SDS011;1833;42.718;23.270;2023-08-06T07:30:08;32.40;;;30.00;;
3633;SDS011;1833;42.718;23.270;2023-08-06T07:32:36;31.00;;;28.67;;
3633;SDS011;1833;42.718;23.270;2023-08-06T07:35:03;32.57;;;30.17;;
3633;SDS011;1833;42.718;23.270;2023-08-06T07:37:33;32.80;;;30.30;;
3633;SDS011;1833;42.718;23.270;2023-08-06T07:40:01;33.30;;;30.83;;
3633;SDS011;1833;42.718;23.270;2023-08-06T07:42:29;31.50;;;29.05;;
3633;SDS011;1833;42.718;23.270;2023-08-06T07:44:58;30.55;;;28.15;;
3633;SDS011;1833;42.718;23.270;2023-08-06T07:47:25;32.10;;;29.70;;
3633;SDS011;1833;42.718;23.270;2023-08-06T07:49:52;31.55;;;29.13;;
3633;SDS011;1833;42.718;23.270;2023-08-06T07:52:20;31.40;;;29.02;;
3633;SDS011;1833;42.718;23.270;2023-08-06T07:54:47;30.77;;;28.38;;
3633;SDS011;1833;42.718;23.270;2023-08-06T07:57:15;30.43;;;28.07;;
3633;SDS011;1833;42.718;23.270;2023-08-06T07:59:43;31.83;;;29.43;;
3633;SDS011;1833;42.718;23.270;2023-08-06T08:02:10;31.90;;;29.30;;
3633;SDS011;1833;42.718;23.270;2023-08-06T08:04:37;31.45;;;29.05;;
3633;SDS011;1833;42.718;23.270;2023-08-06T08:07:04;32.53;;;29.52;;
3633;SDS011;1833;42.718;23.270;2023-08-06T08:09:32;32.80;;;30.03;;
3633;SDS011;1833;42.718;23.270;2023-08-06T08:12:01;31.20;;;28.70;;
3633;SDS011;1833;42.718;23.270;2023-08-06T08:14:30;31.00;;;28.50;;
3633;SDS011;1833;42.718;23.270;2023-08-06T08:17:00;31.48;;;29.17;;
3633;SDS011;1833;42.718;23.270;2023-08-06T08:19:28;31.30;;;28.90;;
3633;SDS011;1833;42.718;23.270;2023-08-06T08:21:55;31.67;;;29.17;;
3633;SDS011;1833;42.718;23.270;2023-08-06T08:24:23;32.10;;;29.38;;
3633;SDS011;1833;42.718;23.270;2023-08-06T08:26:50;32.60;;;30.10;;
3633;SDS011;1833;42.718;23.270;2023-08-06T08:29:18;32.63;;;29.80;;
3633;SDS011;1833;42.718;23.270;2023-08-06T08:31:47;31.42;;;29.02;;
3633;SDS011;1833;42.718;23.270;2023-08-06T08:34:15;30.90;;;28.50;;
3633;SDS011;1833;42.718;23.270;2023-08-06T08:36:42;33.78;;;30.98;;
3633;SDS011;1833;42.718;23.270;2023-08-06T08:39:12;32.83;;;30.15;;
3633;SDS011;1833;42.718;23.270;2023-08-06T08:41:39;36.75;;;33.63;;
3633;SDS011;1833;42.718;23.270;2023-08-06T08:44:07;33.97;;;31.38;;
3633;SDS011;1833;42.718;23.270;2023-08-06T08:46:35;30.73;;;28.25;;
3633;SDS011;1833;42.718;23.270;2023-08-06T08:49:04;32.90;;;30.27;;
3633;SDS011;1833;42.718;23.270;2023-08-06T08:51:32;32.88;;;30.30;;
3633;SDS011;1833;42.718;23.270;2023-08-06T08:54:00;34.05;;;31.40;;
3633;SDS011;1833;42.718;23.270;2023-08-06T08:56:29;36.25;;;32.97;;
3633;SDS011;1833;42.718;23.270;2023-08-06T08:58:57;35.22;;;32.35;;
3633;SDS011;1833;42.718;23.270;2023-08-06T09:01:24;32.42;;;29.95;;
3633;SDS011;1833;42.718;23.270;2023-08-06T09:03:52;34.80;;;32.20;;
3633;SDS011;1833;42.718;23.270;2023-08-06T09:06:21;31.23;;;28.63;;
3633;SDS011;1833;42.718;23.270;2023-08-06T09:08:54;33.22;;;30.52;;
3633;SDS011;1833;42.718;23.270;2023-08-06T09:11:23;31.90;;;29.50;;
3633;SDS011;1833;42.718;23.270;2023-08-06T09:13:51;30.45;;;28.05;;
3633;SDS011;1833;42.718;23.270;2023-08-06T09:16:18;30.33;;;27.83;;
3633;SDS011;1833;42.718;23.270;2023-08-06T09:18:45;32.58;;;29.90;;
3633;SDS011;1833;42.718;23.270;2023-08-06T09:21:15;31.33;;;28.83;;
3633;SDS011;1833;42.718;23.270;2023-08-06T09:23:44;31.20;;;28.80;;
3633;SDS011;1833;42.718;23.270;2023-08-06T09:26:11;31.65;;;29.13;;
3633;SDS011;1833;42.718;23.270;2023-08-06T09:28:39;31.17;;;28.88;;
3633;SDS011;1833;42.718;23.270;2023-08-06T09:31:08;31.70;;;29.30;;
3633;SDS011;1833;42.718;23.270;2023-08-06T09:33:36;30.67;;;28.38;;
3633;SDS011;1833;42.718;23.270;2023-08-06T09:36:08;29.70;;;27.50;;
3633;SDS011;1833;42.718;23.270;2023-08-06T09:38:39;29.13;;;26.92;;
3633;SDS011;1833;42.718;23.270;2023-08-06T09:41:08;31.23;;;28.73;;
3633;SDS011;1833;42.718;23.270;2023-08-06T09:43:41;32.45;;;29.77;;
3633;SDS011;1833;42.718;23.270;2023-08-06T09:46:12;28.05;;;25.95;;
3633;SDS011;1833;42.718;23.270;2023-08-06T09:48:44;30.92;;;28.35;;
3633;SDS011;1833;42.718;23.270;2023-08-06T09:51:11;30.92;;;28.35;;
3633;SDS011;1833;42.718;23.270;2023-08-06T09:53:40;31.73;;;28.67;;
3633;SDS011;1833;42.718;23.270;2023-08-06T09:56:09;31.58;;;29.08;;
3633;SDS011;1833;42.718;23.270;2023-08-06T09:58:36;31.55;;;28.92;;
3633;SDS011;1833;42.718;23.270;2023-08-06T10:01:03;29.67;;;27.27;;
3633;SDS011;1833;42.718;23.270;2023-08-06T10:03:31;28.85;;;26.20;;
3633;SDS011;1833;42.718;23.270;2023-08-06T10:05:59;31.42;;;28.98;;
3633;SDS011;1833;42.718;23.270;2023-08-06T10:08:31;28.73;;;26.52;;
3633;SDS011;1833;42.718;23.270;2023-08-06T10:10:58;29.48;;;27.08;;
3633;SDS011;1833;42.718;23.270;2023-08-06T10:13:27;31.40;;;29.10;;
3633;SDS011;1833;42.718;23.270;2023-08-06T10:15:55;30.50;;;27.90;;
3633;SDS011;1833;42.718;23.270;2023-08-06T10:18:22;30.80;;;28.05;;
3633;SDS011;1833;42.718;23.270;2023-08-06T10:20:50;29.35;;;26.88;;
3633;SDS011;1833;42.718;23.270;2023-08-06T10:23:18;31.05;;;28.65;;
3633;SDS011;1833;42.718;23.270;2023-08-06T10:25:46;29.75;;;27.55;;
3633;SDS011;1833;42.718;23.270;2023-08-06T10:28:21;30.55;;;27.98;;
3633;SDS011;1833;42.718;23.270;2023-08-06T10:30:50;32.40;;;29.65;;
3633;SDS011;1833;42.718;23.270;2023-08-06T10:33:18;29.50;;;27.00;;
3633;SDS011;1833;42.718;23.270;2023-08-06T10:35:47;29.50;;;26.83;;
3633;SDS011;1833;42.718;23.270;2023-08-06T10:38:15;31.85;;;29.25;;
3633;SDS011;1833;42.718;23.270;2023-08-06T10:40:47;31.33;;;28.67;;
3633;SDS011;1833;42.718;23.270;2023-08-06T10:43:24;30.20;;;27.70;;
3633;SDS011;1833;42.718;23.270;2023-08-06T10:45:53;32.38;;;29.27;;
3633;SDS011;1833;42.718;23.270;2023-08-06T10:48:28;31.67;;;29.10;;
3633;SDS011;1833;42.718;23.270;2023-08-06T10:50:56;33.50;;;30.70;;
3633;SDS011;1833;42.718;23.270;2023-08-06T10:53:23;31.97;;;29.40;;
3633;SDS011;1833;42.718;23.270;2023-08-06T10:55:50;31.55;;;29.05;;
3633;SDS011;1833;42.718;23.270;2023-08-06T10:58:17;30.13;;;27.42;;
3633;SDS011;1833;42.718;23.270;2023-08-06T11:00:45;33.22;;;29.80;;
3633;SDS011;1833;42.718;23.270;2023-08-06T11:03:14;35.17;;;32.47;;
3633;SDS011;1833;42.718;23.270;2023-08-06T11:05:48;66.83;;;60.70;;
3633;SDS011;1833;42.718;23.270;2023-08-06T11:08:22;71.00;;;64.00;;
3633;SDS011;1833;42.718;23.270;2023-08-06T11:10:49;72.10;;;65.80;;
3633;SDS011;1833;42.718;23.270;2023-08-06T11:13:17;68.70;;;62.77;;
3633;SDS011;1833;42.718;23.270;2023-08-06T11:15:44;67.53;;;61.07;;
3633;SDS011;1833;42.718;23.270;2023-08-06T11:18:13;62.10;;;57.13;;
3633;SDS011;1833;42.718;23.270;2023-08-06T11:20:40;52.83;;;48.63;;
3633;SDS011;1833;42.718;23.270;2023-08-06T11:23:09;53.33;;;49.13;;
3633;SDS011;1833;42.718;23.270;2023-08-06T11:25:36;48.03;;;44.30;;
3633;SDS011;1833;42.718;23.270;2023-08-06T11:28:04;44.17;;;40.40;;
3633;SDS011;1833;42.718;23.270;2023-08-06T11:30:31;39.17;;;36.17;;
3633;SDS011;1833;42.718;23.270;2023-08-06T11:32:58;34.43;;;31.47;;
3633;SDS011;1833;42.718;23.270;2023-08-06T11:35:27;31.77;;;29.13;;
3633;SDS011;1833;42.718;23.270;2023-08-06T11:37:54;34.37;;;31.60;;
3633;SDS011;1833;42.718;23.270;2023-08-06T11:40:22;32.60;;;29.80;;
3633;SDS011;1833;42.718;23.270;2023-08-06T11:42:49;32.00;;;29.20;;
3633;SDS011;1833;42.718;23.270;2023-08-06T11:45:21;31.40;;;28.90;;
3633;SDS011;1833;42.718;23.270;2023-08-06T11:47:49;32.10;;;29.50;;
3633;SDS011;1833;42.718;23.270;2023-08-06T11:50:21;29.10;;;26.80;;
3633;SDS011;1833;42.718;23.270;2023-08-06T11:52:52;31.98;;;29.13;;
3633;SDS011;1833;42.718;23.270;2023-08-06T11:55:22;32.08;;;29.33;;
3633;SDS011;1833;42.718;23.270;2023-08-06T11:57:49;32.57;;;30.07;;
3633;SDS011;1833;42.718;23.270;2023-08-06T12:00:17;32.10;;;29.67;;
3633;SDS011;1833;42.718;23.270;2023-08-06T12:02:47;32.30;;;29.60;;
3633;SDS011;1833;42.718;23.270;2023-08-06T12:05:16;31.90;;;29.30;;
3633;SDS011;1833;42.718;23.270;2023-08-06T12:07:45;31.97;;;29.50;;
3633;SDS011;1833;42.718;23.270;2023-08-06T12:10:15;32.43;;;29.83;;
3633;SDS011;1833;42.718;23.270;2023-08-06T12:12:42;31.93;;;29.43;;
3633;SDS011;1833;42.718;23.270;2023-08-06T12:15:09;31.87;;;29.37;;
3633;SDS011;1833;42.718;23.270;2023-08-06T12:17:37;33.60;;;31.00;;
3633;SDS011;1833;42.718;23.270;2023-08-06T12:20:05;33.23;;;30.17;;
3633;SDS011;1833;42.718;23.270;2023-08-06T12:22:32;32.23;;;29.70;;
3633;SDS011;1833;42.718;23.270;2023-08-06T12:25:00;32.83;;;30.20;;
3633;SDS011;1833;42.718;23.270;2023-08-06T12:27:29;32.77;;;30.17;;
3633;SDS011;1833;42.718;23.270;2023-08-06T12:29:57;33.93;;;30.80;;
3633;SDS011;1833;42.718;23.270;2023-08-06T12:32:24;30.73;;;28.23;;
3633;SDS011;1833;42.718;23.270;2023-08-06T12:34:51;31.83;;;29.20;;
3633;SDS011;1833;42.718;23.270;2023-08-06T12:37:19;30.97;;;28.07;;
3633;SDS011;1833;42.718;23.270;2023-08-06T12:39:46;30.30;;;27.90;;
3633;SDS011;1833;42.718;23.270;2023-08-06T12:42:13;31.33;;;28.63;;
3633;SDS011;1833;42.718;23.270;2023-08-06T12:44:42;32.60;;;30.00;;
3633;SDS011;1833;42.718;23.270;2023-08-06T12:47:09;32.27;;;29.57;;
3633;SDS011;1833;42.718;23.270;2023-08-06T12:49:37;32.73;;;29.90;;
3633;SDS011;1833;42.718;23.270;2023-08-06T12:52:04;32.23;;;29.43;;
3633;SDS011;1833;42.718;23.270;2023-08-06T12:54:34;29.00;;;26.70;;
3633;SDS011;1833;42.718;23.270;2023-08-06T12:57:02;33.00;;;30.23;;
3633;SDS011;1833;42.718;23.270;2023-08-06T12:59:29;33.30;;;30.17;;
3633;SDS011;1833;42.718;23.270;2023-08-06T13:01:59;31.20;;;28.60;;
3633;SDS011;1833;42.718;23.270;2023-08-06T13:04:26;29.60;;;26.90;;
3633;SDS011;1833;42.718;23.270;2023-08-06T13:06:54;30.10;;;27.70;;
3633;SDS011;1833;42.718;23.270;2023-08-06T13:09:21;30.80;;;28.23;;
3633;SDS011;1833;42.718;23.270;2023-08-06T13:11:48;32.30;;;29.57;;
3633;SDS011;1833;42.718;23.270;2023-08-06T13:14:16;31.10;;;28.50;;
3633;SDS011;1833;42.718;23.270;2023-08-06T13:16:43;31.90;;;29.10;;
3633;SDS011;1833;42.718;23.270;2023-08-06T13:19:12;30.87;;;28.50;;
3633;SDS011;1833;42.718;23.270;2023-08-06T13:21:58;30.87;;;28.37;;
3633;SDS011;1833;42.718;23.270;2023-08-06T13:24:25;32.40;;;29.70;;
3633;SDS011;1833;42.718;23.270;2023-08-06T13:26:53;31.17;;;28.67;;
3633;SDS011;1833;42.718;23.270;2023-08-06T13:29:20;31.13;;;28.57;;
3633;SDS011;1833;42.718;23.270;2023-08-06T13:31:48;34.10;;;31.17;;
3633;SDS011;1833;42.718;23.270;2023-08-06T13:34:16;32.93;;;30.00;;
3633;SDS011;1833;42.718;23.270;2023-08-06T13:36:44;31.73;;;29.10;;
3633;SDS011;1833;42.718;23.270;2023-08-06T13:39:11;33.20;;;30.50;;
3633;SDS011;1833;42.718;23.270;2023-08-06T13:41:41;29.73;;;27.43;;
3633;SDS011;1833;42.718;23.270;2023-08-06T13:44:08;30.73;;;28.33;;
3633;SDS011;1833;42.718;23.270;2023-08-06T13:46:39;31.63;;;29.23;;
3633;SDS011;1833;42.718;23.270;2023-08-06T13:49:06;31.67;;;29.00;;
3633;SDS011;1833;42.718;23.270;2023-08-06T13:51:34;34.60;;;31.80;;
3633;SDS011;1833;42.718;23.270;2023-08-06T13:54:03;31.77;;;29.17;;
3633;SDS011;1833;42.718;23.270;2023-08-06T13:56:32;33.67;;;30.97;;
3633;SDS011;1833;42.718;23.270;2023-08-06T13:58:59;31.57;;;29.17;;
3633;SDS011;1833;42.718;23.270;2023-08-06T14:01:26;33.60;;;30.60;;
3633;SDS011;1833;42.718;23.270;2023-08-06T14:03:54;32.70;;;29.93;;
3633;SDS011;1833;42.718;23.270;2023-08-06T14:06:21;30.77;;;28.17;;
3633;SDS011;1833;42.718;23.270;2023-08-06T14:08:49;29.97;;;27.37;;
3633;SDS011;1833;42.718;23.270;2023-08-06T14:11:17;29.93;;;27.33;;
3633;SDS011;1833;42.718;23.270;2023-08-06T14:13:44;30.20;;;27.10;;
3633;SDS011;1833;42.718;23.270;2023-08-06T14:16:11;31.90;;;29.20;;
3633;SDS011;1833;42.718;23.270;2023-08-06T14:18:38;32.63;;;29.53;;
3633;SDS011;1833;42.718;23.270;2023-08-06T14:21:06;28.87;;;26.47;;
3633;SDS011;1833;42.718;23.270;2023-08-06T14:23:33;29.90;;;27.47;;
3633;SDS011;1833;42.718;23.270;2023-08-06T14:26:02;29.93;;;27.53;;
3633;SDS011;1833;42.718;23.270;2023-08-06T14:28:29;31.90;;;28.80;;
3633;SDS011;1833;42.718;23.270;2023-08-06T14:30:56;29.47;;;27.00;;
3633;SDS011;1833;42.718;23.270;2023-08-06T14:33:24;31.60;;;28.73;;
3633;SDS011;1833;42.718;23.270;2023-08-06T14:35:51;30.87;;;28.30;;
3633;SDS011;1833;42.718;23.270;2023-08-06T14:38:18;29.47;;;27.10;;